Time;durP1;ratioP1;P1;durP2;ratioP2;P2;SDS_P1;SDS_P2;PMS_P1;PMS_P2;Temp;Humidity;BMP_temperature;BMP_pressure;BME280_temperature;BME280_humidity;BME280_pressure;Samples;Min_cycle;Max_cycle;Signal;HPM_P1;HPM_P2
2021/11/18 00:33:43;;;;;;;30.30;2.58;;;;;;;0.41;89.72;100619.72;6390783;22;20021;-76
2021/11/18 00:36:09;;;;;;;9.02;5.15;;;;;;;0.37;89.52;100614.59;6368540;22;20048;-75
2021/11/18 00:39:14;;;;;;;7.05;3.40;;;;;;;0.42;88.90;100620.59;6342939;22;20018;-76
2021/11/18 00:41:54;;;;;;;3.08;2.97;;;;;;;0.40;89.20;100606.88;6398130;22;20655;-77
2021/11/18 00:44:20;;;;;;;4.15;3.85;;;;;;;0.32;89.24;100594.06;6373015;22;20014;-78
2021/11/18 00:46:47;;;;;;;2.75;2.65;;;;;;;0.41;88.63;100613.72;6369683;22;20504;-76
2021/11/18 00:49:13;;;;;;;2.78;2.60;;;;;;;0.40;89.17;100602.59;6396273;22;20024;-79
2021/11/18 00:51:41;;;;;;;4.45;4.03;;;;;;;0.40;88.74;100602.59;6368918;22;20592;-77
2021/11/18 00:54:08;;;;;;;4.22;4.00;;;;;;;0.41;88.89;100603.47;6290927;22;20063;-77
2021/11/18 00:56:34;;;;;;;2.58;2.53;;;;;;;0.40;88.83;100596.59;6396700;22;20081;-78
2021/11/18 00:59:00;;;;;;;3.40;3.30;;;;;;;0.37;88.92;100596.63;6396417;22;20479;-77
2021/11/18 01:01:28;;;;;;;10.25;7.10;;;;;;;0.37;89.00;100591.47;6396759;22;20025;-77
2021/11/18 01:03:55;;;;;;;4.78;4.47;;;;;;;0.31;88.75;100570.94;6368796;22;20026;-76
2021/11/18 01:06:21;;;;;;;5.93;3.88;;;;;;;0.33;88.71;100579.50;6316468;22;20033;-77
2021/11/18 01:08:47;;;;;;;5.15;3.75;;;;;;;0.29;88.55;100576.09;6396683;22;20018;-75
2021/11/18 01:11:19;;;;;;;6.28;4.25;;;;;;;0.28;89.04;100576.09;6396276;22;20020;-75
2021/11/18 01:13:46;;;;;;;8.57;5.75;;;;;;;0.29;89.27;100573.53;6317366;22;20113;-77
2021/11/18 01:16:14;;;;;;;4.47;4.15;;;;;;;0.29;89.56;100572.69;6341759;22;20009;-77
2021/11/18 01:18:40;;;;;;;4.20;3.80;;;;;;;0.25;89.14;100560.69;6368234;22;20530;-77
2021/11/18 01:21:10;;;;;;;3.08;2.88;;;;;;;0.25;89.19;100561.56;6341960;22;20024;-77
2021/11/18 01:23:39;;;;;;;;;;;;;;;0.27;88.49;100558.97;6343216;22;20445;-76
2021/11/18 01:26:07;;;;;;;3.63;3.42;;;;;;;0.29;88.62;100559.84;6341744;22;20004;-78
2021/11/18 01:28:33;;;;;;;6.30;5.82;;;;;;;0.28;87.79;100555.56;6368317;22;20041;-75
2021/11/18 01:31:00;;;;;;;6.22;3.33;;;;;;;0.30;87.65;100558.97;6396332;22;20060;-77
2021/11/18 01:33:26;;;;;;;2.25;2.05;;;;;;;0.28;86.93;100555.56;6367819;22;20021;-75
2021/11/18 01:35:53;;;;;;;2.65;2.35;;;;;;;0.35;86.57;100558.13;6316301;22;20029;-75
2021/11/18 01:38:21;;;;;;;6.10;5.07;;;;;;;0.34;85.68;100552.97;6367884;22;20021;-76
2021/11/18 01:40:55;;;;;;;5.30;4.90;;;;;;;0.34;85.71;100553.84;6368069;22;20018;-75
2021/11/18 01:43:33;;;;;;;7.35;6.45;;;;;;;0.31;85.07;100555.53;6370193;22;20041;-77
2021/11/18 01:45:59;;;;;;;3.88;3.58;;;;;;;0.30;85.88;100548.69;6368034;22;20025;-77
2021/11/18 01:48:26;;;;;;;7.50;6.55;;;;;;;0.27;84.38;100556.41;6368401;22;20489;-78
2021/11/18 01:50:53;;;;;;;1.67;1.67;;;;;;;0.19;83.51;100538.47;6368206;22;20035;-78
2021/11/18 01:53:22;;;;;;;5.13;4.68;;;;;;;0.28;83.19;100555.56;6367865;22;20045;-78
2021/11/18 01:55:49;;;;;;;2.95;2.67;;;;;;;0.28;81.47;100550.41;6368027;22;20483;-76
2021/11/18 01:58:16;;;;;;;4.78;2.28;;;;;;;0.25;81.94;100547.88;6367781;22;20018;-78
2021/11/18 02:01:00;;;;;;;3.60;3.15;;;;;;;0.22;81.35;100542.75;6395751;22;20037;-78
2021/11/18 02:03:27;;;;;;;2.58;2.40;;;;;;;0.20;81.62;100541.88;6367043;22;20074;-79
2021/11/18 02:06:41;;;;;;;4.35;4.03;;;;;;;0.17;80.27;100536.75;6367596;22;20097;-79
2021/11/18 02:09:12;;;;;;;0.93;0.93;;;;;;;0.08;80.34;100529.91;6346702;22;20418;-77
2021/11/18 02:11:42;;;;;;;2.92;2.72;;;;;;;0.14;79.83;100536.75;6368034;22;20014;-77
2021/11/18 02:14:11;;;;;;;;;;;;;;;0.14;79.74;100539.31;6368141;22;20041;-77
2021/11/18 02:16:38;;;;;;;2.10;2.00;;;;;;;0.08;80.47;100536.75;6342084;22;19917;-78
2021/11/18 02:19:08;;;;;;;0.98;0.98;;;;;;;-0.01;79.27;100533.38;6341398;22;20018;-77
2021/11/18 02:21:36;;;;;;;0.95;0.95;;;;;;;-0.02;78.61;100531.66;6367860;22;20010;-79
2021/11/18 02:24:05;;;;;;;1.60;1.60;;;;;;;-0.01;78.78;100528.25;6367516;22;20035;-75
2021/11/18 02:26:32;;;;;;;2.67;1.55;;;;;;;-0.06;79.14;100524.81;6367790;22;20049;-75
2021/11/18 02:29:01;;;;;;;1.40;1.40;;;;;;;-0.06;78.19;100527.38;6369684;22;20021;-75
2021/11/18 02:31:35;;;;;;;1.35;1.35;;;;;;;-0.03;78.77;100518.81;6371348;22;20009;-77
2021/11/18 02:34:08;;;;;;;2.17;2.08;;;;;;;-0.07;78.61;100524.81;6370730;22;20405;-75
2021/11/18 02:36:35;;;;;;;2.80;2.65;;;;;;;-0.05;78.47;100531.66;6319483;22;20605;-75
2021/11/18 02:39:01;;;;;;;0.70;0.70;;;;;;;-0.10;78.99;100523.09;6371380;22;20067;-75
2021/11/18 02:41:27;;;;;;;1.60;1.60;;;;;;;-0.11;78.64;100523.97;6399472;22;20483;-76
2021/11/18 02:43:53;;;;;;;1.58;1.38;;;;;;;-0.11;79.01;100517.97;6399272;22;20014;-77
2021/11/18 02:46:20;;;;;;;0.82;0.82;;;;;;;-0.11;79.24;100516.28;6370918;22;20025;-76
2021/11/18 02:48:46;;;;;;;1.73;1.70;;;;;;;-0.13;78.98;100512.00;6371335;22;20024;-76
2021/11/18 02:51:17;;;;;;;3.17;2.97;;;;;;;-0.19;78.67;100504.28;6369988;22;20010;-75
2021/11/18 02:53:43;;;;;;;1.23;1.23;;;;;;;-0.20;78.69;100493.19;6398209;22;20018;-76
2021/11/18 02:56:09;;;;;;;1.98;1.88;;;;;;;-0.19;78.74;100492.31;6344716;22;20086;-77
2021/11/18 02:58:41;;;;;;;2.40;2.28;;;;;;;-0.16;77.46;100501.72;6371295;22;20516;-75
2021/11/18 03:01:32;;;;;;;2.25;2.08;;;;;;;-0.20;77.08;100511.16;6370910;22;20029;-74
2021/11/18 03:04:00;;;;;;;3.55;3.33;;;;;;;-0.21;77.58;100504.31;6371111;22;20520;-77
2021/11/18 03:06:27;;;;;;;3.33;3.08;;;;;;;-0.29;76.79;100493.19;6345016;22;20040;-76
2021/11/18 03:08:53;;;;;;;4.93;3.10;;;;;;;-0.26;77.86;100495.75;6319200;22;20041;-76
2021/11/18 03:11:20;;;;;;;1.77;1.67;;;;;;;-0.32;77.89;100490.63;6398268;22;20096;-76
2021/11/18 03:13:47;;;;;;;3.97;3.65;;;;;;;-0.35;78.06;100485.50;6345117;22;20025;-75
2021/11/18 03:16:14;;;;;;;3.78;3.45;;;;;;;-0.38;78.17;100495.75;6370982;22;20021;-75
2021/11/18 03:18:41;;;;;;;2.85;2.22;;;;;;;-0.40;78.24;100497.47;6345159;22;20581;-77
2021/11/18 03:21:10;;;;;;;3.30;2.58;;;;;;;-0.47;78.27;100482.94;6397961;22;20025;-78
2021/11/18 03:23:36;;;;;;;4.95;4.00;;;;;;;-0.54;78.09;100473.53;6344730;22;20038;-76
2021/11/18 03:26:08;;;;;;;4.63;4.28;;;;;;;-0.44;77.35;100475.25;6370723;22;20021;-75
2021/11/18 03:28:35;;;;;;;2.63;2.53;;;;;;;-0.44;78.09;100480.38;6318619;22;20349;-78
2021/11/18 03:31:02;;;;;;;3.17;2.95;;;;;;;-0.47;77.83;100480.38;6398986;22;20024;-77
2021/11/18 03:33:37;;;;;;;5.72;3.53;;;;;;;-0.50;78.40;100480.38;6369697;22;20472;-78
2021/11/18 03:36:04;;;;;;;2.05;1.95;;;;;;;-0.54;78.47;100461.59;6345779;22;20050;-75
2021/11/18 03:38:30;;;;;;;5.00;4.38;;;;;;;-0.49;78.01;100474.38;6397694;22;20405;-74
2021/11/18 03:41:13;;;;;;;4.75;3.67;;;;;;;-0.55;78.03;100457.31;6345260;22;20014;-76
2021/11/18 03:43:48;;;;;;;6.80;4.28;;;;;;;-0.53;77.50;100475.28;6315875;22;20096;-75
2021/11/18 03:46:16;;;;;;;3.67;3.47;;;;;;;-0.54;77.58;100473.53;6342287;22;20041;-76
2021/11/18 03:48:42;;;;;;;2.72;2.55;;;;;;;-0.60;76.86;100459.03;6369047;22;20059;-76
2021/11/18 03:51:09;;;;;;;4.43;4.00;;;;;;;-0.60;77.00;100459.03;6316499;22;20093;-74
2021/11/18 03:53:35;;;;;;;1.38;1.38;;;;;;;-0.65;77.33;100465.00;6369189;22;20622;-75
2021/11/18 03:56:06;;;;;;;2.05;1.85;;;;;;;-0.63;77.23;100455.59;6342661;22;20018;-75
2021/11/18 03:58:36;;;;;;;5.65;4.50;;;;;;;-0.63;77.99;100458.19;6343475;22;20018;-75
2021/11/18 04:01:03;;;;;;;3.20;2.90;;;;;;;-0.65;77.55;100439.34;6368958;22;20018;-75
2021/11/18 04:03:30;;;;;;;1.85;1.75;;;;;;;-0.68;77.15;100445.34;6369238;22;20365;-76
2021/11/18 04:05:57;;;;;;;3.40;2.70;;;;;;;-0.70;76.72;100446.22;6395993;22;20025;-74
2021/11/18 04:08:23;;;;;;;10.05;6.00;;;;;;;-0.77;76.66;100455.59;6396753;22;20014;-75
2021/11/18 04:10:50;;;;;;;12.63;5.28;;;;;;;-0.83;76.44;100439.38;6317041;22;20014;-74
2021/11/18 04:13:17;;;;;;;0.70;0.70;;;;;;;-0.83;76.67;100453.03;6343322;22;20020;-77
2021/11/18 04:15:49;;;;;;;3.20;3.00;;;;;;;-0.87;77.14;100437.66;6316795;22;20018;-77
2021/11/18 04:18:20;;;;;;;3.38;3.10;;;;;;;-0.85;77.26;100441.09;6342179;22;20014;-77
2021/11/18 04:20:49;;;;;;;2.88;2.60;;;;;;;-0.86;76.60;100437.66;6396803;22;20013;-76
2021/11/18 04:23:16;;;;;;;3.53;3.15;;;;;;;-0.86;76.93;100440.22;6368730;22;20353;-75
2021/11/18 04:25:42;;;;;;;1.30;1.30;;;;;;;-0.92;76.89;100434.25;6394679;22;20021;-76
2021/11/18 04:28:09;;;;;;;3.78;3.47;;;;;;;-0.92;76.99;100435.09;6343096;22;20018;-76
2021/11/18 04:30:42;;;;;;;1.02;1.02;;;;;;;-0.97;77.26;100430.81;6349324;22;20036;-76
2021/11/18 04:33:20;;;;;;;0.85;0.85;;;;;;;-0.93;76.96;100442.78;6329166;22;20468;-77
2021/11/18 04:35:46;;;;;;;10.73;4.97;;;;;;;-0.94;77.39;100435.94;6351706;22;20522;-77
2021/11/18 04:38:12;;;;;;;4.53;3.25;;;;;;;-0.94;77.84;100441.06;6376253;22;20024;-75
2021/11/18 04:40:39;;;;;;;0.85;0.85;;;;;;;-0.99;77.22;100425.69;6369447;22;20020;-78
2021/11/18 04:43:05;;;;;;;2.88;2.67;;;;;;;-0.94;77.22;100429.09;6317778;22;20022;-77
2021/11/18 04:45:32;;;;;;;2.85;2.67;;;;;;;-0.97;76.92;100425.69;6342218;22;20067;-76
2021/11/18 04:47:58;;;;;;;12.63;5.47;;;;;;;-0.99;76.47;100427.41;6369149;22;20013;-75
2021/11/18 04:50:24;;;;;;;0.90;0.90;;;;;;;-0.99;77.50;100428.25;6368907;22;20464;-76
2021/11/18 04:52:51;;;;;;;4.40;3.35;;;;;;;-0.98;77.05;100418.88;6368631;22;20276;-75
2021/11/18 04:55:21;;;;;;;3.35;2.15;;;;;;;-1.02;77.39;100423.13;6317156;22;20048;-76
2021/11/18 04:57:47;;;;;;;0.52;0.52;;;;;;;-1.00;77.48;100415.44;6369397;22;20086;-78
2021/11/18 05:00:19;;;;;;;12.73;6.00;;;;;;;-1.07;76.58;100420.56;6368181;22;20014;-77
2021/11/18 05:02:47;;;;;;;3.72;3.42;;;;;;;-1.08;77.17;100413.72;6342901;22;20060;-76
2021/11/18 05:05:13;;;;;;;5.70;5.05;;;;;;;-1.10;77.53;100405.19;6342115;22;20014;-74
2021/11/18 05:07:40;;;;;;;1.92;1.88;;;;;;;-1.07;77.84;100405.19;6368829;22;20449;-77
2021/11/18 05:10:07;;;;;;;3.63;3.35;;;;;;;-1.08;77.56;100398.34;6316573;22;20081;-78
2021/11/18 05:12:33;;;;;;;1.90;1.77;;;;;;;-1.03;77.89;100397.50;6316670;22;20070;-78
2021/11/18 05:15:00;;;;;;;5.95;5.43;;;;;;;-1.09;77.26;100390.69;6316774;22;20395;-76
2021/11/18 05:17:26;;;;;;;5.97;5.15;;;;;;;-1.20;76.88;100377.84;6369058;22;20018;-79
2021/11/18 05:19:52;;;;;;;7.55;4.32;;;;;;;-1.17;77.08;100393.22;6316139;22;20014;-75
2021/11/18 05:22:18;;;;;;;4.55;4.18;;;;;;;-1.18;77.41;100385.56;6368775;22;20097;-76
2021/11/18 05:24:45;;;;;;;3.58;3.03;;;;;;;-1.15;77.21;100394.09;6369681;22;20018;-77
2021/11/18 05:27:13;;;;;;;9.77;6.28;;;;;;;-1.26;77.34;100382.97;6370937;22;20350;-80
2021/11/18 05:29:40;;;;;;;4.97;4.65;;;;;;;-1.24;77.35;100391.50;6345818;22;20014;-80
2021/11/18 05:32:07;;;;;;;2.80;2.55;;;;;;;-1.28;77.38;100389.81;6374319;22;20361;-78
2021/11/18 05:34:55;;;;;;;6.22;5.63;;;;;;;-1.28;77.60;100376.16;6374097;22;20091;-84
2021/11/18 05:37:22;;;;;;;3.08;2.95;;;;;;;-1.23;77.86;100385.53;6322165;22;20618;-83
2021/11/18 05:39:48;;;;;;;3.28;3.10;;;;;;;-1.29;78.02;100382.97;6370220;22;20374;-80
2021/11/18 05:42:14;;;;;;;7.07;6.07;;;;;;;-1.30;77.45;100368.44;6313431;22;20018;-81
2021/11/18 05:44:43;;;;;;;10.07;7.57;;;;;;;-1.32;78.05;100382.97;6370343;22;20029;-82
2021/11/18 05:47:09;;;;;;;2.17;1.75;;;;;;;-1.39;77.43;100368.44;6369200;22;20049;-81
2021/11/18 05:49:36;;;;;;;10.10;8.38;;;;;;;-1.44;77.44;100371.88;6343113;22;20460;-81
2021/11/18 05:52:14;;;;;;;10.30;8.82;;;;;;;-1.44;77.18;100370.13;6321889;22;20109;-80
2021/11/18 05:54:41;;;;;;;11.68;7.60;;;;;;;-1.46;76.79;100379.53;6341027;22;20025;-84
2021/11/18 05:57:07;;;;;;;14.57;9.25;;;;;;;-1.44;77.78;100370.13;6369338;22;20024;-82
2021/11/18 05:59:33;;;;;;;13.55;10.07;;;;;;;-1.53;77.23;100352.19;6341671;22;20017;-82
2021/11/18 06:02:00;;;;;;;9.65;5.07;;;;;;;-1.52;77.58;100376.97;6342681;22;20014;-82
2021/11/18 06:04:26;;;;;;;20.42;12.98;;;;;;;-1.61;77.13;100374.38;6395733;22;20021;-81
2021/11/18 06:07:00;;;;;;;2.05;1.98;;;;;;;-1.62;76.76;100380.34;6341611;22;20022;-81
2021/11/18 06:09:27;;;;;;;9.30;7.68;;;;;;;-1.72;76.73;100365.81;6396044;22;20461;-81
2021/11/18 06:11:53;;;;;;;5.25;4.88;;;;;;;-1.74;76.91;100382.88;6315385;22;20021;-81
2021/11/18 06:14:19;;;;;;;4.75;4.35;;;;;;;-1.78;77.27;100376.03;6367346;22;20021;-81
2021/11/18 06:16:47;;;;;;;9.20;7.22;;;;;;;-1.78;77.30;100370.91;6367629;22;20143;-78
2021/11/18 06:19:14;;;;;;;7.60;4.50;;;;;;;-1.82;77.15;100379.41;6367298;22;20024;-80
2021/11/18 06:21:43;;;;;;;7.32;6.40;;;;;;;-1.92;76.51;100363.19;6367337;22;20037;-79
2021/11/18 06:24:10;;;;;;;10.10;5.30;;;;;;;-2.00;76.79;100372.56;6342400;22;20083;-82
2021/11/18 06:26:43;;;;;;;18.95;9.25;;;;;;;-2.07;77.09;100364.84;6368058;22;20029;-81
2021/11/18 06:29:19;;;;;;;;;;;;;;;-2.09;76.82;100369.94;6370112;22;20039;-83
2021/11/18 06:31:47;;;;;;;6.00;5.43;;;;;;;-2.12;76.51;100373.34;6368400;22;19910;-79
2021/11/18 06:34:18;;;;;;;1.52;1.52;;;;;;;-2.12;76.50;100370.78;6340995;22;20025;-82
2021/11/18 06:36:45;;;;;;;3.25;3.03;;;;;;;-2.13;77.28;100363.94;6368565;22;20407;-77
2021/11/18 06:39:54;;;;;;;3.40;3.20;;;;;;;-2.14;76.52;100357.16;6326880;22;20502;-79
2021/11/18 06:42:22;;;;;;;1.52;1.52;;;;;;;-2.28;76.89;100323.00;6318510;22;20026;-81
2021/11/18 06:45:04;;;;;;;7.95;5.63;;;;;;;-2.38;77.13;100321.22;6276412;22;20074;-83
2021/11/18 06:47:58;;;;;;;11.52;8.35;;;;;;;-2.33;77.04;100304.22;6308992;22;20030;-83
2021/11/18 06:50:29;;;;;;;4.95;4.50;;;;;;;-2.14;77.06;100344.38;6319114;22;20049;-80
2021/11/18 06:53:28;;;;;;;11.18;7.80;;;;;;;-2.13;77.40;100345.22;6317978;22;20013;-81
2021/11/18 06:56:07;;;;;;;9.18;5.35;;;;;;;-2.14;77.09;100349.47;6341120;22;20013;-78
2021/11/18 06:59:05;;;;;;;3.42;3.00;;;;;;;-2.26;77.23;100321.28;6300675;22;20422;-80
2021/11/18 07:01:45;;;;;;;2.75;2.65;;;;;;;-2.18;77.34;100342.63;6344180;22;20044;-84
2021/11/18 12:06:07;;;;;;;10.32;7.72;;;;;;;-1.34;70.59;99954.53;6394688;22;20099;-80
2021/11/18 12:08:50;;;;;;;9.40;7.60;;;;;;;-1.22;70.38;99972.41;6340611;22;20104;-78
2021/11/18 12:11:30;;;;;;;15.75;10.00;;;;;;;-1.24;70.83;99974.09;6341487;22;20440;-79
2021/11/18 12:14:01;;;;;;;7.40;3.92;;;;;;;-1.29;71.18;99936.59;6290972;22;20037;-79
2021/11/18 12:16:51;;;;;;;11.13;9.23;;;;;;;-1.22;70.73;99959.59;6288191;22;20450;-79
2021/11/18 12:19:50;;;;;;;10.23;4.07;;;;;;;-1.16;71.17;99949.31;6263543;22;20247;-79
2021/11/18 12:22:46;;;;;;;11.93;9.63;;;;;;;-1.20;71.41;99942.50;6312159;22;20707;-79
2021/11/18 12:25:22;;;;;;;8.95;7.05;;;;;;;-1.13;70.95;99938.19;6310993;22;20043;-80
2021/11/18 12:28:18;;;;;;;22.95;13.05;;;;;;;-1.16;71.54;99944.19;6312222;22;20024;-80
2021/11/18 12:31:07;;;;;;;17.48;11.25;;;;;;;-1.14;71.67;99934.78;6312488;22;20519;-79
2021/11/18 12:33:48;;;;;;;9.82;7.47;;;;;;;-1.13;71.48;99933.06;6337516;22;20021;-79
2021/11/18 12:36:32;;;;;;;10.65;8.70;;;;;;;-1.14;71.32;99924.53;6339368;22;20018;-79
2021/11/18 12:39:47;;;;;;;10.52;7.93;;;;;;;-1.12;71.89;99910.03;6339527;22;20022;-80
2021/11/18 12:42:52;;;;;;;17.45;4.63;;;;;;;-1.09;72.07;99930.50;6280222;22;20488;-80
2021/11/18 12:45:48;;;;;;;18.95;9.95;;;;;;;-1.08;71.50;99927.06;6317199;22;20018;-80
2021/11/18 12:48:26;;;;;;;15.35;9.55;;;;;;;-1.10;72.06;99907.44;6339895;22;20017;-80
2021/11/18 12:51:20;;;;;;;20.73;13.70;;;;;;;-1.08;72.04;99910.88;6368033;22;20014;-82
2021/11/18 12:54:09;;;;;;;8.43;6.63;;;;;;;-1.07;72.16;99908.28;6316947;22;20020;-84
2021/11/18 12:57:13;;;;;;;11.25;8.40;;;;;;;-1.05;72.19;99919.34;6376268;22;20017;-82
2021/11/18 12:59:48;;;;;;;6.75;6.13;;;;;;;-1.03;72.17;99906.53;6369923;22;20018;-84
2021/11/18 13:02:27;;;;;;;3.53;3.35;;;;;;;-1.06;72.38;99894.63;6377876;22;20111;-85
2021/11/18 13:04:58;;;;;;;4.32;3.88;;;;;;;-1.03;72.98;99903.97;6417917;22;20069;-86
2021/11/18 13:07:41;;;;;;;17.77;10.88;;;;;;;-1.05;72.52;99896.28;6390574;22;20032;-86
2021/11/18 13:10:16;;;;;;;17.85;11.35;;;;;;;-1.03;72.59;99890.31;6390728;22;20030;-86
2021/11/18 13:12:50;;;;;;;21.23;11.07;;;;;;;-1.07;72.84;99885.22;6376154;22;20096;-84
2021/11/18 13:15:21;;;;;;;30.75;9.63;;;;;;;-1.03;73.22;99874.94;6376418;22;20014;-78
2021/11/18 13:18:02;;;;;;;6.13;5.45;;;;;;;-1.02;72.88;99889.47;6368490;22;20014;-78
2021/11/18 13:20:53;;;;;;;6.88;5.28;;;;;;;-1.01;73.27;99870.69;6396466;22;20066;-78
2021/11/18 13:23:40;;;;;;;19.97;12.97;;;;;;;-1.00;73.10;99859.56;6368999;22;20014;-78
2021/11/18 13:26:15;;;;;;;5.38;5.00;;;;;;;-1.03;73.41;99874.94;6395518;22;20018;-80
2021/11/18 13:28:57;;;;;;;6.50;5.53;;;;;;;-0.98;73.11;99870.66;6341746;22;20371;-79
2021/11/18 13:31:30;;;;;;;13.95;9.63;;;;;;;-0.99;73.03;99874.06;6344462;22;20032;-79
2021/11/18 13:34:09;;;;;;;9.88;7.57;;;;;;;-0.99;73.59;99863.81;6395437;22;20013;-79
2021/11/18 13:36:37;;;;;;;8.88;7.03;;;;;;;-0.98;73.63;99856.09;6343390;22;20017;-78
2021/11/18 13:39:20;;;;;;;13.02;8.80;;;;;;;-0.97;73.91;99856.97;6368007;22;20021;-80
2021/11/18 13:41:51;;;;;;;12.68;10.68;;;;;;;-0.99;74.01;99845.91;6340491;22;20120;-79
2021/11/18 13:44:33;;;;;;;7.72;4.60;;;;;;;-1.00;74.49;99839.06;6367553;22;20088;-79
2021/11/18 13:47:05;;;;;;;2.97;2.83;;;;;;;-0.99;74.61;99851.88;6341301;22;20071;-79
2021/11/18 13:49:34;;;;;;;4.63;4.25;;;;;;;-0.97;74.53;99844.16;6316952;22;20092;-78
2021/11/18 13:52:15;;;;;;;3.63;3.30;;;;;;;-0.92;74.73;99840.72;6392320;22;20536;-78
2021/11/18 13:54:49;;;;;;;;;;;;;;;-0.90;74.73;99844.09;6316088;22;20021;-78
2021/11/18 13:57:46;;;;;;;6.20;5.60;;;;;;;-0.87;74.89;99846.63;6394943;22;19940;-78
2021/11/18 14:00:21;;;;;;;4.32;4.00;;;;;;;-0.87;74.90;99838.09;6335590;22;20072;-78
2021/11/18 14:02:57;;;;;;;12.75;8.45;;;;;;;-0.83;74.84;99844.88;6289351;22;20083;-80
2021/11/18 14:05:30;;;;;;;10.23;6.72;;;;;;;-0.82;75.40;99841.47;6340313;22;20428;-79
2021/11/18 14:08:18;;;;;;;14.02;9.50;;;;;;;-0.82;75.95;99838.91;6341903;22;20018;-78
2021/11/18 14:10:50;;;;;;;6.07;5.45;;;;;;;-0.84;75.92;99825.25;6340125;22;20025;-80
2021/11/18 14:13:42;;;;;;;14.70;7.10;;;;;;;-0.79;76.12;99828.63;6341277;22;20018;-80
2021/11/18 14:16:26;;;;;;;9.63;7.93;;;;;;;-0.76;75.46;99815.78;6395315;22;20464;-80
2021/11/18 14:19:04;;;;;;;12.32;9.35;;;;;;;-0.75;75.82;99814.91;6344796;22;20013;-77
2021/11/18 14:21:41;;;;;;;7.45;5.32;;;;;;;-0.72;76.05;99820.03;6398144;22;20021;-79
2021/11/18 14:24:08;;;;;;;7.65;5.82;;;;;;;-0.74;76.04;99819.19;6370768;22;20014;-76
2021/11/18 14:26:51;;;;;;;4.78;3.55;;;;;;;-0.71;76.71;99820.00;6341401;22;20025;-76
2021/11/18 14:29:44;;;;;;;13.50;8.30;;;;;;;-0.69;76.05;99817.44;6395424;22;20072;-76
2021/11/18 14:32:26;;;;;;;11.07;7.13;;;;;;;-0.68;76.15;99803.72;6343519;22;20495;-76
2021/11/18 14:35:15;;;;;;;14.15;9.95;;;;;;;-0.67;75.92;99805.44;6367262;22;20041;-75
2021/11/18 14:38:03;;;;;;;10.93;6.88;;;;;;;-0.64;76.49;99795.16;6394506;22;20018;-75
2021/11/18 14:40:55;;;;;;;8.80;6.95;;;;;;;-0.64;75.94;99790.03;6366918;22;20121;-76
2021/11/18 14:43:54;;;;;;;25.05;12.95;;;;;;;-0.69;76.27;99777.25;6394821;22;20045;-76
2021/11/18 14:46:59;;;;;;;3.70;3.47;;;;;;;-0.64;76.80;99784.91;6385627;22;20021;-76
2021/11/18 14:49:31;;;;;;;15.77;7.82;;;;;;;-0.66;76.29;99773.81;6387807;22;20547;-75
2021/11/18 14:52:29;;;;;;;11.57;7.95;;;;;;;-0.65;76.36;99784.03;6366025;22;20063;-76
2021/11/18 14:55:18;;;;;;;17.48;10.85;;;;;;;-0.63;76.26;99784.91;6366367;22;20081;-75
2021/11/18 14:57:53;;;;;;;14.80;7.50;;;;;;;-0.62;76.35;99785.72;6394958;22;20410;-75
2021/11/18 15:00:37;;;;;;;10.23;7.50;;;;;;;-0.62;76.62;99767.78;6344858;22;20098;-79
2021/11/18 15:03:06;;;;;;;13.80;6.32;;;;;;;-0.64;76.17;99760.13;6367068;22;20046;-78
2021/11/18 15:05:32;;;;;;;7.57;5.85;;;;;;;-0.60;76.07;99769.47;6366211;22;20602;-79
2021/11/18 15:07:59;;;;;;;11.90;5.70;;;;;;;-0.59;76.14;99765.22;6341281;22;20018;-80
2021/11/18 15:10:25;;;;;;;4.28;3.88;;;;;;;-0.60;76.28;99755.81;6366677;22;20025;-79
2021/11/18 15:12:51;;;;;;;9.95;8.82;;;;;;;-0.58;76.37;99756.63;6340161;22;20025;-78
2021/11/18 15:15:25;;;;;;;11.38;9.27;;;;;;;-0.58;76.30;99754.06;6366663;22;20014;-79
2021/11/18 15:17:56;;;;;;;8.88;7.03;;;;;;;-0.57;76.21;99754.06;6393651;22;20013;-78
2021/11/18 15:20:24;;;;;;;3.33;3.13;;;;;;;-0.58;76.41;99751.50;6394647;22;20041;-78
2021/11/18 15:22:53;;;;;;;4.95;4.65;;;;;;;-0.56;76.22;99754.91;6394317;22;20028;-79
2021/11/18 15:25:21;;;;;;;10.35;9.07;;;;;;;-0.56;76.59;99749.78;6341346;22;20021;-78
2021/11/18 15:27:49;;;;;;;17.55;10.00;;;;;;;-0.57;76.48;99745.53;6340762;22;20151;-78
2021/11/18 15:30:24;;;;;;;9.32;5.55;;;;;;;-0.55;77.08;99743.78;6367796;22;20014;-78
2021/11/18 15:32:51;;;;;;;15.68;8.68;;;;;;;-0.54;76.30;99740.34;6366785;22;20194;-78
2021/11/18 15:35:19;;;;;;;6.18;5.60;;;;;;;-0.53;76.41;99736.94;6395154;22;20018;-80
2021/11/18 15:37:46;;;;;;;8.73;6.65;;;;;;;-0.52;76.38;99736.06;6396411;22;20028;-80
2021/11/18 15:40:14;;;;;;;4.65;4.35;;;;;;;-0.54;77.15;99733.53;6397076;22;20465;-80
2021/11/18 15:42:40;;;;;;;18.33;12.60;;;;;;;-0.52;76.69;99734.34;6397093;22;20103;-80
2021/11/18 15:45:07;;;;;;;7.85;6.82;;;;;;;-0.51;76.79;99730.06;6399451;22;20013;-82
2021/11/18 15:47:33;;;;;;;4.32;4.10;;;;;;;-0.50;76.80;99731.78;6399089;22;20024;-80
2021/11/18 15:50:04;;;;;;;6.60;6.03;;;;;;;-0.47;77.14;99729.16;6404999;22;20599;-79
2021/11/18 15:52:30;;;;;;;13.23;10.13;;;;;;;-0.50;77.32;99726.66;6381335;22;20014;-81
2021/11/18 15:54:58;;;;;;;6.47;5.78;;;;;;;-0.51;76.86;99722.38;6352502;22;20018;-79
2021/11/18 15:57:25;;;;;;;10.10;7.85;;;;;;;-0.45;76.82;99721.44;6356934;22;20352;-79
2021/11/18 15:59:51;;;;;;;7.75;3.88;;;;;;;-0.49;77.08;99727.50;6400067;22;20045;-79
2021/11/18 16:02:19;;;;;;;9.77;5.25;;;;;;;-0.44;77.22;99724.00;6344115;22;20021;-80
2021/11/18 16:04:46;;;;;;;9.15;6.53;;;;;;;-0.44;77.40;99716.31;6397786;22;20046;-79
2021/11/18 16:07:15;;;;;;;21.88;10.93;;;;;;;-0.43;77.36;99720.56;6401731;22;20086;-79
2021/11/18 16:09:42;;;;;;;21.23;12.77;;;;;;;-0.43;77.54;99712.88;6399018;22;20171;-79
2021/11/18 16:12:15;;;;;;;1.77;1.70;;;;;;;-0.41;77.50;99702.59;6344416;22;20014;-80
2021/11/18 16:14:45;;;;;;;4.07;3.78;;;;;;;-0.44;77.37;99690.66;6369918;22;20017;-79
2021/11/18 16:17:13;;;;;;;17.67;10.05;;;;;;;-0.40;78.18;99694.91;6320733;22;20018;-78
2021/11/18 16:19:41;;;;;;;5.38;4.88;;;;;;;-0.41;77.65;99685.50;6396672;22;20486;-79
2021/11/18 16:22:10;;;;;;;4.13;2.58;;;;;;;-0.36;78.05;99693.16;6370697;22;20021;-79
2021/11/18 16:24:37;;;;;;;10.18;7.20;;;;;;;-0.40;78.34;99674.38;6368425;22;20071;-75
2021/11/18 16:27:04;;;;;;;7.65;5.57;;;;;;;-0.36;78.17;99693.97;6368008;22;20441;-75
2021/11/18 16:29:32;;;;;;;15.23;10.27;;;;;;;-0.37;78.22;99692.28;6367216;22;20619;-75
2021/11/18 16:32:00;;;;;;;15.65;7.82;;;;;;;-0.37;79.06;99692.28;6399552;22;20014;-78
2021/11/18 16:34:26;;;;;;;3.83;2.70;;;;;;;-0.38;79.57;99679.47;6367469;22;20014;-78
2021/11/18 16:36:55;;;;;;;15.68;10.45;;;;;;;-0.44;80.63;99695.81;6395687;22;20067;-77
2021/11/18 16:39:21;;;;;;;6.07;5.40;;;;;;;-0.48;80.79;99683.88;6395851;22;20352;-77
2021/11/18 16:41:50;;;;;;;6.45;4.57;;;;;;;-0.46;80.88;99692.41;6395523;22;20445;-78
2021/11/18 16:44:16;;;;;;;4.57;4.30;;;;;;;-0.50;81.55;99684.78;6367825;22;20026;-77
2021/11/18 16:46:42;;;;;;;5.15;4.82;;;;;;;-0.53;82.28;99685.66;6395423;22;20452;-77
2021/11/18 16:49:10;;;;;;;16.33;11.40;;;;;;;-0.53;82.17;99690.78;6395315;22;20372;-79
2021/11/18 16:51:42;;;;;;;3.25;3.05;;;;;;;-0.52;81.72;99671.97;6395249;22;20052;-75
2021/11/18 16:54:08;;;;;;;8.48;7.63;;;;;;;-0.50;82.12;99670.25;6396261;22;20037;-77
2021/11/18 16:56:35;;;;;;;20.67;12.85;;;;;;;-0.49;81.67;99671.09;6395986;22;20021;-76
2021/11/18 16:59:03;;;;;;;5.63;5.18;;;;;;;-0.50;82.13;99675.38;6396113;22;20020;-76
2021/11/18 17:01:34;;;;;;;5.57;4.88;;;;;;;-0.52;82.67;99667.69;6370256;22;20048;-76
2021/11/18 17:04:00;;;;;;;17.05;10.82;;;;;;;-0.48;82.83;99672.78;6344393;22;20022;-76
2021/11/18 17:06:29;;;;;;;8.00;7.43;;;;;;;-0.50;83.12;99665.13;6369993;22;20457;-76
2021/11/18 17:08:58;;;;;;;4.78;3.60;;;;;;;-0.53;83.73;99654.91;6396464;22;20090;-75
2021/11/18 17:11:28;;;;;;;3.47;3.28;;;;;;;-0.55;83.86;99662.59;6396048;22;20020;-76
2021/11/18 17:13:55;;;;;;;13.45;8.52;;;;;;;-0.54;84.45;99658.34;6369638;22;20017;-77
2021/11/18 17:16:21;;;;;;;15.50;10.80;;;;;;;-0.53;84.41;99652.34;6409636;22;20014;-77
2021/11/18 17:19:12;;;;;;;16.58;10.35;;;;;;;-0.53;84.55;99642.09;6408216;22;20025;-77
2021/11/18 17:21:45;;;;;;;24.88;12.95;;;;;;;-0.54;84.27;99642.94;6379871;22;20014;-77
2021/11/18 17:24:13;;;;;;;4.03;3.78;;;;;;;-0.51;84.59;99642.91;6381252;22;20020;-79
2021/11/18 17:26:40;;;;;;;4.30;4.03;;;;;;;-0.50;84.89;99644.63;6353368;22;20017;-79